sensor_id;sensor_type;location;lat;lon;timestamp;pressure;altitude;pressure_sealevel;temperature;humidity
60267;BME280;46125;61.360;-149.532;2023-06-10T00:00:03;99231.23;;;19.52;35.19
60267;BME280;46125;61.360;-149.532;2023-06-10T00:02:32;99227.71;;;18.61;34.85
60267;BME280;46125;61.360;-149.532;2023-06-10T00:05:01;99226.75;;;19.41;34.82
60267;BME280;46125;61.360;-149.532;2023-06-10T00:07:29;99231.16;;;18.81;36.74
60267;BME280;46125;61.360;-149.532;2023-06-10T00:09:58;99228.55;;;19.73;36.87
60267;BME280;46125;61.360;-149.532;2023-06-10T00:12:26;99227.95;;;19.29;36.53
60267;BME280;46125;61.360;-149.532;2023-06-10T00:14:54;99231.22;;;18.60;37.03
60267;BME280;46125;61.360;-149.532;2023-06-10T00:17:23;99228.78;;;18.39;37.08
60267;BME280;46125;61.360;-149.532;2023-06-10T00:19:51;99231.48;;;17.91;39.76
60267;BME280;46125;61.360;-149.532;2023-06-10T00:22:20;99230.26;;;17.52;40.99
60267;BME280;46125;61.360;-149.532;2023-06-10T00:24:48;99229.71;;;17.55;39.04
60267;BME280;46125;61.360;-149.532;2023-06-10T00:27:17;99230.36;;;17.38;41.14
60267;BME280;46125;61.360;-149.532;2023-06-10T00:29:45;99230.92;;;17.46;39.25
60267;BME280;46125;61.360;-149.532;2023-06-10T00:32:14;99235.95;;;17.82;39.62
60267;BME280;46125;61.360;-149.532;2023-06-10T00:34:42;99237.34;;;16.66;40.71
60267;BME280;46125;61.360;-149.532;2023-06-10T00:37:11;99235.49;;;18.54;37.99
60267;BME280;46125;61.360;-149.532;2023-06-10T00:39:39;99232.19;;;16.69;42.44
60267;BME280;46125;61.360;-149.532;2023-06-10T00:42:08;99232.55;;;18.35;37.24
60267;BME280;46125;61.360;-149.532;2023-06-10T00:44:37;99231.53;;;18.84;37.99
60267;BME280;46125;61.360;-149.532;2023-06-10T00:47:06;99234.98;;;17.82;36.38
60267;BME280;46125;61.360;-149.532;2023-06-10T00:49:35;99234.87;;;17.43;38.05
60267;BME280;46125;61.360;-149.532;2023-06-10T00:52:04;99235.71;;;17.38;38.30
60267;BME280;46125;61.360;-149.532;2023-06-10T00:54:34;99236.55;;;18.32;37.17
60267;BME280;46125;61.360;-149.532;2023-06-10T00:57:03;99231.06;;;19.32;35.76
60267;BME280;46125;61.360;-149.532;2023-06-10T00:59:32;99231.94;;;17.96;39.97
60267;BME280;46125;61.360;-149.532;2023-06-10T01:02:00;99229.24;;;18.79;36.05
60267;BME280;46125;61.360;-149.532;2023-06-10T01:04:29;99233.12;;;19.53;36.70
60267;BME280;46125;61.360;-149.532;2023-06-10T01:07:05;99238.85;;;18.36;35.68
60267;BME280;46125;61.360;-149.532;2023-06-10T01:09:45;99241.80;;;18.38;38.08
60267;BME280;46125;61.360;-149.532;2023-06-10T01:12:19;99241.12;;;18.35;37.48
60267;BME280;46125;61.360;-149.532;2023-06-10T01:14:49;99246.03;;;19.05;38.61
60267;BME280;46125;61.360;-149.532;2023-06-10T01:17:18;99247.66;;;18.13;38.64
60267;BME280;46125;61.360;-149.532;2023-06-10T01:19:54;99234.86;;;17.80;40.27
60267;BME280;46125;61.360;-149.532;2023-06-10T01:22:23;99246.13;;;16.78;42.68
60267;BME280;46125;61.360;-149.532;2023-06-10T01:24:53;99236.22;;;17.67;41.70
60267;BME280;46125;61.360;-149.532;2023-06-10T01:27:23;99271.18;;;16.93;36.22
60267;BME280;46125;61.360;-149.532;2023-06-10T01:29:58;99251.17;;;16.64;31.48
60267;BME280;46125;61.360;-149.532;2023-06-10T01:32:32;99246.84;;;16.11;34.33
60267;BME280;46125;61.360;-149.532;2023-06-10T01:35:03;99252.93;;;14.94;33.61
60267;BME280;46125;61.360;-149.532;2023-06-10T01:37:39;99247.46;;;14.30;33.20
60267;BME280;46125;61.360;-149.532;2023-06-10T01:40:10;99243.63;;;14.47;34.54
60267;BME280;46125;61.360;-149.532;2023-06-10T01:42:38;99246.53;;;14.22;34.11
60267;BME280;46125;61.360;-149.532;2023-06-10T01:45:07;99248.71;;;14.31;35.12
60267;BME280;46125;61.360;-149.532;2023-06-10T01:47:36;99237.14;;;14.32;34.91
60267;BME280;46125;61.360;-149.532;2023-06-10T01:50:05;99237.83;;;14.11;34.28
60267;BME280;46125;61.360;-149.532;2023-06-10T01:52:33;99225.65;;;13.72;36.13
60267;BME280;46125;61.360;-149.532;2023-06-10T01:55:03;99240.10;;;13.89;34.14
60267;BME280;46125;61.360;-149.532;2023-06-10T01:57:32;99238.64;;;13.98;35.21
60267;BME280;46125;61.360;-149.532;2023-06-10T02:00:01;99235.54;;;14.56;34.50
60267;BME280;46125;61.360;-149.532;2023-06-10T02:02:29;99247.68;;;13.99;34.16
60267;BME280;46125;61.360;-149.532;2023-06-10T02:04:58;99248.18;;;14.17;33.20
60267;BME280;46125;61.360;-149.532;2023-06-10T02:07:26;99250.15;;;14.09;33.10
60267;BME280;46125;61.360;-149.532;2023-06-10T02:09:54;99246.36;;;14.43;32.60
60267;BME280;46125;61.360;-149.532;2023-06-10T02:12:23;99257.70;;;14.44;34.55
60267;BME280;46125;61.360;-149.532;2023-06-10T02:14:51;99239.20;;;14.05;33.19
60267;BME280;46125;61.360;-149.532;2023-06-10T02:17:20;99235.76;;;14.33;31.63
60267;BME280;46125;61.360;-149.532;2023-06-10T02:19:48;99235.93;;;14.32;32.50
60267;BME280;46125;61.360;-149.532;2023-06-10T02:22:17;99236.36;;;14.68;32.97
60267;BME280;46125;61.360;-149.532;2023-06-10T02:24:45;99235.46;;;14.94;33.14
60267;BME280;46125;61.360;-149.532;2023-06-10T02:27:14;99234.61;;;14.82;33.16
60267;BME280;46125;61.360;-149.532;2023-06-10T02:29:42;99239.60;;;14.88;32.62
60267;BME280;46125;61.360;-149.532;2023-06-10T02:32:11;99241.19;;;14.43;32.35
60267;BME280;46125;61.360;-149.532;2023-06-10T02:34:39;99239.17;;;14.00;32.25
60267;BME280;46125;61.360;-149.532;2023-06-10T02:37:08;99243.37;;;14.25;32.26
60267;BME280;46125;61.360;-149.532;2023-06-10T02:39:36;99244.41;;;14.19;33.27
60267;BME280;46125;61.360;-149.532;2023-06-10T02:42:05;99257.78;;;14.06;31.92
60267;BME280;46125;61.360;-149.532;2023-06-10T02:44:34;99249.81;;;14.40;31.55
60267;BME280;46125;61.360;-149.532;2023-06-10T02:47:03;99249.33;;;14.27;31.65
60267;BME280;46125;61.360;-149.532;2023-06-10T02:49:31;99249.93;;;14.19;32.31
60267;BME280;46125;61.360;-149.532;2023-06-10T02:51:59;99246.00;;;14.31;33.57
60267;BME280;46125;61.360;-149.532;2023-06-10T02:54:28;99240.72;;;13.88;33.84
60267;BME280;46125;61.360;-149.532;2023-06-10T02:56:57;99260.96;;;13.64;33.40
60267;BME280;46125;61.360;-149.532;2023-06-10T02:59:26;99256.90;;;13.57;32.96
60267;BME280;46125;61.360;-149.532;2023-06-10T03:01:54;99260.38;;;13.37;34.65
60267;BME280;46125;61.360;-149.532;2023-06-10T03:04:23;99252.29;;;13.73;34.31
60267;BME280;46125;61.360;-149.532;2023-06-10T03:06:51;99245.11;;;13.18;34.56
60267;BME280;46125;61.360;-149.532;2023-06-10T03:09:20;99253.85;;;12.96;35.28
60267;BME280;46125;61.360;-149.532;2023-06-10T03:11:48;99253.75;;;12.45;35.25
60267;BME280;46125;61.360;-149.532;2023-06-10T03:14:17;99254.99;;;12.61;35.90
60267;BME280;46125;61.360;-149.532;2023-06-10T03:16:45;99262.27;;;12.49;35.91
60267;BME280;46125;61.360;-149.532;2023-06-10T03:19:14;99257.71;;;12.29;36.91
60267;BME280;46125;61.360;-149.532;2023-06-10T03:21:45;99260.62;;;12.24;35.87
60267;BME280;46125;61.360;-149.532;2023-06-10T03:24:13;99265.83;;;12.13;35.68
60267;BME280;46125;61.360;-149.532;2023-06-10T03:26:42;99273.18;;;12.06;36.32
60267;BME280;46125;61.360;-149.532;2023-06-10T03:29:10;99263.54;;;12.38;36.93
60267;BME280;46125;61.360;-149.532;2023-06-10T03:31:39;99263.43;;;12.01;35.72
60267;BME280;46125;61.360;-149.532;2023-06-10T03:34:07;99264.92;;;12.47;36.67
60267;BME280;46125;61.360;-149.532;2023-06-10T03:36:36;99273.15;;;12.21;36.27
60267;BME280;46125;61.360;-149.532;2023-06-10T03:39:06;99276.42;;;12.30;36.01
60267;BME280;46125;61.360;-149.532;2023-06-10T03:41:34;99257.34;;;12.03;36.42
60267;BME280;46125;61.360;-149.532;2023-06-10T03:44:03;99247.80;;;11.73;35.76
60267;BME280;46125;61.360;-149.532;2023-06-10T03:46:31;99264.48;;;11.90;36.23
60267;BME280;46125;61.360;-149.532;2023-06-10T03:49:00;99265.55;;;12.46;35.19
60267;BME280;46125;61.360;-149.532;2023-06-10T03:51:33;99264.10;;;12.40;35.29
60267;BME280;46125;61.360;-149.532;2023-06-10T03:54:02;99260.04;;;12.74;35.32
60267;BME280;46125;61.360;-149.532;2023-06-10T03:56:31;99256.97;;;12.47;34.97
60267;BME280;46125;61.360;-149.532;2023-06-10T03:59:00;99260.62;;;12.50;35.37
60267;BME280;46125;61.360;-149.532;2023-06-10T04:01:29;99254.27;;;12.65;34.59
60267;BME280;46125;61.360;-149.532;2023-06-10T04:03:57;99258.59;;;12.61;34.01
60267;BME280;46125;61.360;-149.532;2023-06-10T04:06:26;99259.29;;;12.81;34.28
60267;BME280;46125;61.360;-149.532;2023-06-10T04:08:54;99259.44;;;12.71;33.57
60267;BME280;46125;61.360;-149.532;2023-06-10T04:11:23;99260.60;;;12.76;33.87
60267;BME280;46125;61.360;-149.532;2023-06-10T04:13:52;99240.08;;;12.88;32.59
60267;BME280;46125;61.360;-149.532;2023-06-10T04:16:21;99266.56;;;12.85;34.60
60267;BME280;46125;61.360;-149.532;2023-06-10T04:18:50;99263.85;;;12.70;33.98
60267;BME280;46125;61.360;-149.532;2023-06-10T04:21:18;99258.52;;;12.92;33.49
60267;BME280;46125;61.360;-149.532;2023-06-10T04:23:47;99250.18;;;12.80;33.37
60267;BME280;46125;61.360;-149.532;2023-06-10T04:26:15;99263.91;;;12.24;34.77
60267;BME280;46125;61.360;-149.532;2023-06-10T04:28:44;99279.22;;;12.09;34.89
60267;BME280;46125;61.360;-149.532;2023-06-10T04:31:12;99261.43;;;11.89;34.75
60267;BME280;46125;61.360;-149.532;2023-06-10T04:33:40;99266.41;;;12.04;36.40
60267;BME280;46125;61.360;-149.532;2023-06-10T04:36:09;99276.64;;;12.05;35.49
60267;BME280;46125;61.360;-149.532;2023-06-10T04:38:37;99261.44;;;12.31;34.81
60267;BME280;46125;61.360;-149.532;2023-06-10T04:41:07;99281.80;;;11.99;34.21
60267;BME280;46125;61.360;-149.532;2023-06-10T04:43:45;99293.64;;;11.60;35.87
60267;BME280;46125;61.360;-149.532;2023-06-10T04:46:13;99284.33;;;12.32;34.83
60267;BME280;46125;61.360;-149.532;2023-06-10T04:48:42;99278.28;;;12.59;35.84
60267;BME280;46125;61.360;-149.532;2023-06-10T04:51:10;99287.71;;;11.80;36.14
60267;BME280;46125;61.360;-149.532;2023-06-10T04:53:39;99296.47;;;11.64;36.80
60267;BME280;46125;61.360;-149.532;2023-06-10T04:56:07;99282.19;;;11.79;36.63
60267;BME280;46125;61.360;-149.532;2023-06-10T04:58:36;99301.37;;;11.52;36.74
60267;BME280;46125;61.360;-149.532;2023-06-10T05:01:05;99301.88;;;11.89;35.87
60267;BME280;46125;61.360;-149.532;2023-06-10T05:03:34;99290.28;;;12.12;34.86
60267;BME280;46125;61.360;-149.532;2023-06-10T05:06:02;99287.06;;;12.13;35.85
60267;BME280;46125;61.360;-149.532;2023-06-10T05:08:30;99284.44;;;12.16;35.47
60267;BME280;46125;61.360;-149.532;2023-06-10T05:10:59;99276.90;;;11.77;36.80
60267;BME280;46125;61.360;-149.532;2023-06-10T05:13:27;99274.05;;;11.73;35.91
60267;BME280;46125;61.360;-149.532;2023-06-10T05:15:56;99292.81;;;11.66;37.15
60267;BME280;46125;61.360;-149.532;2023-06-10T05:18:24;99308.34;;;11.52;37.22
60267;BME280;46125;61.360;-149.532;2023-06-10T05:20:53;99296.11;;;11.75;35.51
60267;BME280;46125;61.360;-149.532;2023-06-10T05:23:21;99285.68;;;11.90;36.47
60267;BME280;46125;61.360;-149.532;2023-06-10T05:25:50;99311.74;;;11.71;36.70
60267;BME280;46125;61.360;-149.532;2023-06-10T05:28:19;99306.00;;;11.91;35.80
60267;BME280;46125;61.360;-149.532;2023-06-10T05:30:47;99308.23;;;12.41;35.09
60267;BME280;46125;61.360;-149.532;2023-06-10T05:33:15;99320.79;;;12.77;35.13
60267;BME280;46125;61.360;-149.532;2023-06-10T05:35:44;99326.00;;;12.87;34.89
60267;BME280;46125;61.360;-149.532;2023-06-10T05:38:23;99324.31;;;12.34;35.95
60267;BME280;46125;61.360;-149.532;2023-06-10T05:40:52;99324.03;;;12.48;35.03
60267;BME280;46125;61.360;-149.532;2023-06-10T05:43:20;99318.76;;;12.16;35.96
60267;BME280;46125;61.360;-149.532;2023-06-10T05:45:49;99331.25;;;12.89;34.81
60267;BME280;46125;61.360;-149.532;2023-06-10T05:48:18;99333.99;;;12.64;35.60
60267;BME280;46125;61.360;-149.532;2023-06-10T05:50:47;99329.52;;;12.00;37.88
60267;BME280;46125;61.360;-149.532;2023-06-10T05:53:25;99328.10;;;11.70;37.10
60267;BME280;46125;61.360;-149.532;2023-06-10T05:55:53;99342.23;;;11.08;36.94
60267;BME280;46125;61.360;-149.532;2023-06-10T05:58:22;99330.89;;;11.48;36.26
60267;BME280;46125;61.360;-149.532;2023-06-10T06:00:51;99339.72;;;11.23;36.74
60267;BME280;46125;61.360;-149.532;2023-06-10T06:03:30;99339.40;;;11.82;35.81
60267;BME280;46125;61.360;-149.532;2023-06-10T06:05:59;99333.05;;;11.94;36.20
60267;BME280;46125;61.360;-149.532;2023-06-10T06:08:27;99334.50;;;11.62;36.13
60267;BME280;46125;61.360;-149.532;2023-06-10T06:10:55;99325.81;;;12.00;35.03
60267;BME280;46125;61.360;-149.532;2023-06-10T06:13:24;99316.44;;;12.48;34.11
60267;BME280;46125;61.360;-149.532;2023-06-10T06:15:53;99339.95;;;12.20;35.93
60267;BME280;46125;61.360;-149.532;2023-06-10T06:18:21;99329.74;;;11.91;36.65
60267;BME280;46125;61.360;-149.532;2023-06-10T06:20:51;99323.03;;;11.84;36.68
60267;BME280;46125;61.360;-149.532;2023-06-10T06:23:19;99329.54;;;11.66;35.90
60267;BME280;46125;61.360;-149.532;2023-06-10T06:25:47;99324.49;;;12.35;33.54
60267;BME280;46125;61.360;-149.532;2023-06-10T06:28:17;99331.24;;;11.96;35.70
60267;BME280;46125;61.360;-149.532;2023-06-10T06:30:45;99327.71;;;12.35;34.94
60267;BME280;46125;61.360;-149.532;2023-06-10T06:33:14;99325.61;;;12.38;35.15
60267;BME280;46125;61.360;-149.532;2023-06-10T06:35:42;99336.74;;;11.91;34.45
60267;BME280;46125;61.360;-149.532;2023-06-10T06:38:11;99335.88;;;12.14;36.01
60267;BME280;46125;61.360;-149.532;2023-06-10T06:40:40;99336.71;;;12.00;35.43
60267;BME280;46125;61.360;-149.532;2023-06-10T06:43:08;99331.88;;;12.05;36.59
60267;BME280;46125;61.360;-149.532;2023-06-10T06:45:37;99336.09;;;12.20;35.87
60267;BME280;46125;61.360;-149.532;2023-06-10T06:48:06;99339.32;;;12.68;36.17
60267;BME280;46125;61.360;-149.532;2023-06-10T06:50:34;99339.14;;;12.17;34.88
60267;BME280;46125;61.360;-149.532;2023-06-10T06:53:02;99335.75;;;12.22;35.53
60267;BME280;46125;61.360;-149.532;2023-06-10T06:55:36;99344.50;;;11.68;36.00
60267;BME280;46125;61.360;-149.532;2023-06-10T06:58:05;99335.83;;;12.17;35.66
60267;BME280;46125;61.360;-149.532;2023-06-10T07:00:33;99338.94;;;12.72;36.10
60267;BME280;46125;61.360;-149.532;2023-06-10T07:03:02;99339.45;;;12.74;35.27
60267;BME280;46125;61.360;-149.532;2023-06-10T07:05:31;99341.61;;;12.76;34.90
60267;BME280;46125;61.360;-149.532;2023-06-10T07:07:59;99343.92;;;11.85;36.17
60267;BME280;46125;61.360;-149.532;2023-06-10T07:10:29;99340.55;;;12.55;36.02
60267;BME280;46125;61.360;-149.532;2023-06-10T07:12:57;99341.94;;;12.57;35.85
60267;BME280;46125;61.360;-149.532;2023-06-10T07:15:26;99348.69;;;12.18;35.58
60267;BME280;46125;61.360;-149.532;2023-06-10T07:17:54;99353.37;;;12.77;34.55
60267;BME280;46125;61.360;-149.532;2023-06-10T07:20:23;99360.79;;;13.92;34.06
60267;BME280;46125;61.360;-149.532;2023-06-10T07:22:57;99358.44;;;14.32;34.35
60267;BME280;46125;61.360;-149.532;2023-06-10T07:25:26;99361.41;;;13.38;33.74
60267;BME280;46125;61.360;-149.532;2023-06-10T07:27:54;99367.55;;;14.44;34.91
60267;BME280;46125;61.360;-149.532;2023-06-10T07:30:23;99366.60;;;14.36;34.71
60267;BME280;46125;61.360;-149.532;2023-06-10T07:32:52;99370.68;;;13.39;35.66
60267;BME280;46125;61.360;-149.532;2023-06-10T07:35:21;99374.39;;;13.64;36.25
60267;BME280;46125;61.360;-149.532;2023-06-10T07:37:49;99379.35;;;14.67;36.30
60267;BME280;46125;61.360;-149.532;2023-06-10T07:40:18;99379.58;;;13.88;36.21
60267;BME280;46125;61.360;-149.532;2023-06-10T07:42:46;99381.52;;;14.22;36.84
60267;BME280;46125;61.360;-149.532;2023-06-10T07:45:15;99381.88;;;14.32;36.63
60267;BME280;46125;61.360;-149.532;2023-06-10T07:47:43;99383.05;;;14.01;36.29
60267;BME280;46125;61.360;-149.532;2023-06-10T07:50:12;99388.62;;;14.66;37.05
60267;BME280;46125;61.360;-149.532;2023-06-10T07:52:41;99390.18;;;14.14;36.60
60267;BME280;46125;61.360;-149.532;2023-06-10T07:55:09;99390.96;;;12.75;38.52
60267;BME280;46125;61.360;-149.532;2023-06-10T07:57:38;99389.19;;;14.82;36.82
60267;BME280;46125;61.360;-149.532;2023-06-10T08:00:07;99387.33;;;15.23;35.41
60267;BME280;46125;61.360;-149.532;2023-06-10T08:02:36;99386.76;;;15.22;35.55
60267;BME280;46125;61.360;-149.532;2023-06-10T08:05:05;99389.86;;;15.11;35.28
60267;BME280;46125;61.360;-149.532;2023-06-10T08:07:34;99387.51;;;14.65;39.95
60267;BME280;46125;61.360;-149.532;2023-06-10T08:10:02;99393.44;;;15.24;38.85
60267;BME280;46125;61.360;-149.532;2023-06-10T08:12:31;99396.93;;;15.17;38.97
60267;BME280;46125;61.360;-149.532;2023-06-10T08:14:59;99395.13;;;15.27;40.31
60267;BME280;46125;61.360;-149.532;2023-06-10T08:17:28;99391.64;;;14.96;37.10
60267;BME280;46125;61.360;-149.532;2023-06-10T08:19:56;99396.90;;;15.40;38.77
60267;BME280;46125;61.360;-149.532;2023-06-10T08:22:25;99398.90;;;15.38;37.76
60267;BME280;46125;61.360;-149.532;2023-06-10T08:24:53;99401.16;;;15.41;35.73
60267;BME280;46125;61.360;-149.532;2023-06-10T08:27:22;99404.86;;;15.55;35.55
60267;BME280;46125;61.360;-149.532;2023-06-10T08:29:50;99405.07;;;15.37;35.02
60267;BME280;46125;61.360;-149.532;2023-06-10T08:32:19;99408.69;;;14.65;36.84
60267;BME280;46125;61.360;-149.532;2023-06-10T08:34:47;99411.79;;;14.64;39.90
60267;BME280;46125;61.360;-149.532;2023-06-10T08:37:16;99412.24;;;13.27;40.65
60267;BME280;46125;61.360;-149.532;2023-06-10T08:39:44;99414.80;;;13.70;42.15
60267;BME280;46125;61.360;-149.532;2023-06-10T08:42:21;99414.03;;;14.43;41.52
60267;BME280;46125;61.360;-149.532;2023-06-10T08:44:54;99417.43;;;14.24;42.37
60267;BME280;46125;61.360;-149.532;2023-06-10T08:47:24;99423.89;;;13.80;42.22
60267;BME280;46125;61.360;-149.532;2023-06-10T08:49:54;99426.63;;;14.57;40.57
60267;BME280;46125;61.360;-149.532;2023-06-10T08:52:22;99427.53;;;14.88;37.76
60267;BME280;46125;61.360;-149.532;2023-06-10T08:54:58;99430.88;;;15.05;39.51
60267;BME280;46125;61.360;-149.532;2023-06-10T08:57:28;99430.85;;;14.88;40.40
60267;BME280;46125;61.360;-149.532;2023-06-10T08:59:58;99430.77;;;14.52;41.88
60267;BME280;46125;61.360;-149.532;2023-06-10T09:02:26;99430.38;;;11.50;47.34
60267;BME280;46125;61.360;-149.532;2023-06-10T09:04:56;99428.55;;;13.92;44.41
60267;BME280;46125;61.360;-149.532;2023-06-10T09:07:25;99433.07;;;13.75;40.76
60267;BME280;46125;61.360;-149.532;2023-06-10T09:09:55;99431.84;;;13.85;38.24
60267;BME280;46125;61.360;-149.532;2023-06-10T09:12:23;99436.54;;;12.85;40.29
60267;BME280;46125;61.360;-149.532;2023-06-10T09:14:52;99442.97;;;13.22;41.23
60267;BME280;46125;61.360;-149.532;2023-06-10T09:17:26;99447.83;;;13.40;41.38
60267;BME280;46125;61.360;-149.532;2023-06-10T09:19:55;99451.29;;;13.35;43.47
60267;BME280;46125;61.360;-149.532;2023-06-10T09:22:24;99450.96;;;13.80;41.29
60267;BME280;46125;61.360;-149.532;2023-06-10T09:25:01;99451.92;;;13.48;43.00
60267;BME280;46125;61.360;-149.532;2023-06-10T09:27:32;99455.79;;;13.08;43.12
60267;BME280;46125;61.360;-149.532;2023-06-10T09:30:00;99456.35;;;13.65;42.12
60267;BME280;46125;61.360;-149.532;2023-06-10T09:32:29;99462.04;;;13.86;40.68
60267;BME280;46125;61.360;-149.532;2023-06-10T09:34:57;99460.90;;;13.73;43.23
60267;BME280;46125;61.360;-149.532;2023-06-10T09:37:26;99463.12;;;13.59;42.61
60267;BME280;46125;61.360;-149.532;2023-06-10T09:40:11;99467.30;;;12.61;43.98
60267;BME280;46125;61.360;-149.532;2023-06-10T09:42:40;99468.54;;;13.87;43.76
60267;BME280;46125;61.360;-149.532;2023-06-10T09:45:08;99467.27;;;13.55;42.99
60267;BME280;46125;61.360;-149.532;2023-06-10T09:47:37;99475.05;;;13.05;46.02
60267;BME280;46125;61.360;-149.532;2023-06-10T09:50:06;99472.65;;;13.17;44.74
60267;BME280;46125;61.360;-149.532;2023-06-10T09:52:46;99469.41;;;13.22;45.11
60267;BME280;46125;61.360;-149.532;2023-06-10T09:55:17;99474.74;;;12.97;45.60
60267;BME280;46125;61.360;-149.532;2023-06-10T09:57:45;99469.26;;;12.80;45.70
60267;BME280;46125;61.360;-149.532;2023-06-10T10:00:17;99468.90;;;13.37;45.43
60267;BME280;46125;61.360;-149.532;2023-06-10T10:02:48;99470.26;;;13.15;44.10
60267;BME280;46125;61.360;-149.532;2023-06-10T10:05:18;99470.36;;;13.63;44.92
60267;BME280;46125;61.360;-149.532;2023-06-10T10:07:47;99470.29;;;13.05;45.65
60267;BME280;46125;61.360;-149.532;2023-06-10T10:10:19;99470.01;;;13.67;44.54
60267;BME280;46125;61.360;-149.532;2023-06-10T10:12:50;99470.64;;;13.38;44.74
60267;BME280;46125;61.360;-149.532;2023-06-10T10:15:20;99474.06;;;13.66;44.43
60267;BME280;46125;61.360;-149.532;2023-06-10T10:17:55;99475.11;;;13.18;45.70
60267;BME280;46125;61.360;-149.532;2023-06-10T10:20:33;99476.63;;;12.74;45.95
60267;BME280;46125;61.360;-149.532;2023-06-10T10:23:04;99472.58;;;13.21;44.30
60267;BME280;46125;61.360;-149.532;2023-06-10T10:25:37;99469.19;;;13.18;43.14
60267;BME280;46125;61.360;-149.532;2023-06-10T10:28:09;99474.45;;;11.46;47.27
60267;BME280;46125;61.360;-149.532;2023-06-10T10:30:41;99472.27;;;12.52;46.31
60267;BME280;46125;61.360;-149.532;2023-06-10T10:33:16;99470.28;;;12.61;45.55
60267;BME280;46125;61.360;-149.532;2023-06-10T10:35:45;99473.18;;;12.47;46.60
60267;BME280;46125;61.360;-149.532;2023-06-10T10:38:14;99478.41;;;11.14;48.00
60267;BME280;46125;61.360;-149.532;2023-06-10T10:40:43;99475.15;;;11.93;47.39
60267;BME280;46125;61.360;-149.532;2023-06-10T10:43:13;99472.33;;;12.69;45.39
60267;BME280;46125;61.360;-149.532;2023-06-10T10:45:42;99471.79;;;12.93;45.92
60267;BME280;46125;61.360;-149.532;2023-06-10T10:48:10;99473.61;;;12.50;45.33
60267;BME280;46125;61.360;-149.532;2023-06-10T10:50:39;99475.66;;;12.22;45.72
60267;BME280;46125;61.360;-149.532;2023-06-10T10:53:09;99477.81;;;12.90;44.76
60267;BME280;46125;61.360;-149.532;2023-06-10T10:55:37;99478.63;;;12.06;47.24
60267;BME280;46125;61.360;-149.532;2023-06-10T10:58:07;99472.98;;;12.28;46.31
60267;BME280;46125;61.360;-149.532;2023-06-10T11:00:37;99475.62;;;12.89;45.96
60267;BME280;46125;61.360;-149.532;2023-06-10T11:03:14;99475.47;;;11.74;46.62
60267;BME280;46125;61.360;-149.532;2023-06-10T11:05:45;99475.67;;;9.57;48.94
60267;BME280;46125;61.360;-149.532;2023-06-10T11:08:15;99472.19;;;9.50;49.25
60267;BME280;46125;61.360;-149.532;2023-06-10T11:10:52;99476.29;;;11.51;49.07
60267;BME280;46125;61.360;-149.532;2023-06-10T11:13:21;99482.20;;;11.43;47.64
60267;BME280;46125;61.360;-149.532;2023-06-10T11:15:50;99479.41;;;12.15;45.44
60267;BME280;46125;61.360;-149.532;2023-06-10T11:18:23;99486.32;;;10.48;49.06
60267;BME280;46125;61.360;-149.532;2023-06-10T11:21:01;99487.03;;;12.12;47.24
60267;BME280;46125;61.360;-149.532;2023-06-10T11:23:45;99481.23;;;12.21;46.22
60267;BME280;46125;61.360;-149.532;2023-06-10T11:26:20;99480.00;;;12.63;45.68
60267;BME280;46125;61.360;-149.532;2023-06-10T11:29:06;99480.89;;;12.20;44.82
60267;BME280;46125;61.360;-149.532;2023-06-10T11:31:41;99482.31;;;12.61;45.92
60267;BME280;46125;61.360;-149.532;2023-06-10T11:34:11;99481.85;;;12.78;45.71
60267;BME280;46125;61.360;-149.532;2023-06-10T11:36:41;99481.64;;;13.00;44.85
60267;BME280;46125;61.360;-149.532;2023-06-10T11:39:10;99480.62;;;12.94;44.96
60267;BME280;46125;61.360;-149.532;2023-06-10T11:41:39;99479.27;;;12.70;44.61
60267;BME280;46125;61.360;-149.532;2023-06-10T11:44:10;99481.18;;;11.80;46.46
60267;BME280;46125;61.360;-149.532;2023-06-10T11:46:39;99486.62;;;12.28;46.16
60267;BME280;46125;61.360;-149.532;2023-06-10T11:49:08;99486.98;;;10.95;47.63
60267;BME280;46125;61.360;-149.532;2023-06-10T11:51:38;99485.52;;;12.43;44.41
60267;BME280;46125;61.360;-149.532;2023-06-10T11:54:08;99485.53;;;12.17;45.39
60267;BME280;46125;61.360;-149.532;2023-06-10T11:56:36;99486.31;;;10.50;46.46
60267;BME280;46125;61.360;-149.532;2023-06-10T11:59:05;99489.50;;;12.00;46.94
60267;BME280;46125;61.360;-149.532;2023-06-10T12:01:36;99489.43;;;11.75;46.21
60267;BME280;46125;61.360;-149.532;2023-06-10T12:04:06;99485.15;;;12.03;46.16
60267;BME280;46125;61.360;-149.532;2023-06-10T12:06:41;99490.62;;;12.30;45.77
60267;BME280;46125;61.360;-149.532;2023-06-10T12:09:15;99494.56;;;12.22;44.04
60267;BME280;46125;61.360;-149.532;2023-06-10T12:11:44;99499.26;;;12.27;44.83
60267;BME280;46125;61.360;-149.532;2023-06-10T12:14:13;99501.39;;;12.03;43.58
60267;BME280;46125;61.360;-149.532;2023-06-10T12:16:48;99502.71;;;12.36;42.56
60267;BME280;46125;61.360;-149.532;2023-06-10T12:19:17;99497.60;;;12.12;43.28
60267;BME280;46125;61.360;-149.532;2023-06-10T12:21:46;99497.75;;;12.49;43.34
60267;BME280;46125;61.360;-149.532;2023-06-10T12:24:14;99495.37;;;12.60;43.07
60267;BME280;46125;61.360;-149.532;2023-06-10T12:26:44;99496.61;;;11.46;46.71
60267;BME280;46125;61.360;-149.532;2023-06-10T12:29:21;99492.43;;;11.68;45.81
60267;BME280;46125;61.360;-149.532;2023-06-10T12:31:58;99495.68;;;11.36;46.08
60267;BME280;46125;61.360;-149.532;2023-06-10T12:34:36;99494.12;;;9.96;49.24
60267;BME280;46125;61.360;-149.532;2023-06-10T12:37:06;99492.48;;;10.34;50.05
60267;BME280;46125;61.360;-149.532;2023-06-10T12:39:37;99492.68;;;9.08;49.12
60267;BME280;46125;61.360;-149.532;2023-06-10T12:42:06;99495.59;;;9.99;50.15